Berlin Boro, New Jersey
Current Conditions -  °F | °C
As of 7:54 AM on Friday 24 Oct 2014 (Local Time) from KVAY Reporting Station
Overcast Overcast  
Wind Chill: 54°   Ceiling: 3300
Heat Index: 54°   Visibility: 10mi
Dew Point: 45°   Wind: 6mph
Humidity: 72%   Direction: 290°WNW
Pressure: 29.84"   Gusts: NA
Location:  39.7587°N, 74.9349°W
Report Text: KVAY 241154Z AUTO 29005KT 10SM OVC033 12/07 A2984 RMK AO2 SLP103 70005 T01220072 10122 20106 53002
Loading
Personal Weather Stations






























Interactive Weather Map
Tropical Storm Tracking
New forecast layout! Learn more

10-Day Weather Forecast

Advertisements
Track Severe Weather on mobile